Terminal Aerodrome Forecast
Issued by NWS Albuquerque, NM

Home | Current Version | Previous Version | Text Only | Print | Product List | Glossary On
Versions: 1 2 3 4 5 6 7 8 9 10 11 12 13 14 15 16 17 18 19 20 21
125
FTUS45 KABQ 162332
TAFABQ
TAF
KABQ 162332Z 1700/1724 09005KT P6SM FEW030 BKN050
     FM170100 10011KT P6SM BKN045
     FM170600 08014KT P6SM VCSH OVC040
     FM171500 12006KT P6SM OVC040
     FM171900 15005KT P6SM FEW040=

USA.gov is the U.S. government's official web portal to all federal, state and local government web resources and services.